Terminal Aerodrome Forecast
Issued by NWS Wilmington, OH

Current Version | Previous Version | Graphics & Text | Print | Product List | Glossary On
Versions: 1 2 3 4 5 6 7 8 9 10 11 12 13 14 15 16 17 18 19 20 21
400
FTUS41 KILN 160217 AAA
TAFDAY
TAF AMD
KDAY 160217Z 1602/1624 24013KT P6SM BKN015
     FM160300 27012KT P6SM SCT035
     FM160800 28012KT P6SM OVC012
     FM161500 29011KT P6SM BKN025
     FM162300 30009KT P6SM SCT025=

USA.gov is the U.S. government's official web portal to all federal, state and local government web resources and services.